sensor_id;sensor_type;location;lat;lon;timestamp;P1;durP1;ratioP1;P2;durP2;ratioP2
71622;SDS011;59473;53.214;5.728;2022-11-12T00:02:23;27.10;;;13.10;;
71622;SDS011;59473;53.214;5.728;2022-11-12T00:04:48;32.40;;;13.40;;
71622;SDS011;59473;53.214;5.728;2022-11-12T00:07:14;35.13;;;12.80;;
71622;SDS011;59473;53.214;5.728;2022-11-12T00:09:39;25.30;;;12.73;;
71622;SDS011;59473;53.214;5.728;2022-11-12T00:12:04;43.40;;;15.20;;
71622;SDS011;59473;53.214;5.728;2022-11-12T00:14:29;24.20;;;12.70;;
71622;SDS011;59473;53.214;5.728;2022-11-12T00:16:54;25.47;;;11.97;;
71622;SDS011;59473;53.214;5.728;2022-11-12T00:19:20;28.67;;;13.40;;
71622;SDS011;59473;53.214;5.728;2022-11-12T00:21:45;30.90;;;13.70;;
71622;SDS011;59473;53.214;5.728;2022-11-12T00:24:10;27.03;;;13.23;;
71622;SDS011;59473;53.214;5.728;2022-11-12T00:26:35;29.83;;;13.20;;
71622;SDS011;59473;53.214;5.728;2022-11-12T00:29:00;28.27;;;13.70;;
71622;SDS011;59473;53.214;5.728;2022-11-12T00:31:26;30.10;;;13.07;;
71622;SDS011;59473;53.214;5.728;2022-11-12T00:33:51;25.33;;;12.70;;
71622;SDS011;59473;53.214;5.728;2022-11-12T00:36:16;27.97;;;13.00;;
71622;SDS011;59473;53.214;5.728;2022-11-12T00:38:41;29.73;;;13.20;;
71622;SDS011;59473;53.214;5.728;2022-11-12T00:41:07;28.20;;;12.13;;
71622;SDS011;59473;53.214;5.728;2022-11-12T00:43:32;28.53;;;13.40;;
71622;SDS011;59473;53.214;5.728;2022-11-12T00:45:57;24.87;;;12.13;;
71622;SDS011;59473;53.214;5.728;2022-11-12T00:48:22;28.17;;;11.97;;
71622;SDS011;59473;53.214;5.728;2022-11-12T00:50:47;25.40;;;12.80;;
71622;SDS011;59473;53.214;5.728;2022-11-12T00:53:13;25.97;;;12.03;;
71622;SDS011;59473;53.214;5.728;2022-11-12T00:55:38;21.87;;;12.23;;
71622;SDS011;59473;53.214;5.728;2022-11-12T00:58:03;24.90;;;11.73;;
71622;SDS011;59473;53.214;5.728;2022-11-12T01:00:28;26.63;;;13.00;;
71622;SDS011;59473;53.214;5.728;2022-11-12T01:02:54;23.93;;;12.37;;
71622;SDS011;59473;53.214;5.728;2022-11-12T01:05:19;25.10;;;12.73;;
71622;SDS011;59473;53.214;5.728;2022-11-12T01:07:44;31.20;;;12.80;;
71622;SDS011;59473;53.214;5.728;2022-11-12T01:10:10;26.97;;;13.50;;
71622;SDS011;59473;53.214;5.728;2022-11-12T01:12:35;30.10;;;13.17;;
71622;SDS011;59473;53.214;5.728;2022-11-12T01:15:01;25.30;;;13.98;;
71622;SDS011;59473;53.214;5.728;2022-11-12T01:17:26;28.37;;;12.93;;
71622;SDS011;59473;53.214;5.728;2022-11-12T01:19:51;30.33;;;13.83;;
71622;SDS011;59473;53.214;5.728;2022-11-12T01:22:16;30.87;;;14.07;;
71622;SDS011;59473;53.214;5.728;2022-11-12T01:24:42;29.83;;;14.03;;
71622;SDS011;59473;53.214;5.728;2022-11-12T01:27:07;25.93;;;13.23;;
71622;SDS011;59473;53.214;5.728;2022-11-12T01:29:32;27.47;;;13.83;;
71622;SDS011;59473;53.214;5.728;2022-11-12T01:31:57;25.50;;;13.70;;
71622;SDS011;59473;53.214;5.728;2022-11-12T01:34:23;28.27;;;13.03;;
71622;SDS011;59473;53.214;5.728;2022-11-12T01:36:48;31.60;;;14.60;;
71622;SDS011;59473;53.214;5.728;2022-11-12T01:39:13;28.30;;;13.60;;
71622;SDS011;59473;53.214;5.728;2022-11-12T01:41:39;25.27;;;13.20;;
71622;SDS011;59473;53.214;5.728;2022-11-12T01:44:12;26.88;;;13.00;;
71622;SDS011;59473;53.214;5.728;2022-11-12T01:46:50;28.80;;;12.80;;
71622;SDS011;59473;53.214;5.728;2022-11-12T01:49:20;28.63;;;12.88;;
71622;SDS011;59473;53.214;5.728;2022-11-12T01:51:47;24.27;;;11.63;;
71622;SDS011;59473;53.214;5.728;2022-11-12T01:54:14;27.05;;;13.25;;
71622;SDS011;59473;53.214;5.728;2022-11-12T01:56:40;28.70;;;13.68;;
71622;SDS011;59473;53.214;5.728;2022-11-12T01:59:27;33.37;;;13.67;;
71622;SDS011;59473;53.214;5.728;2022-11-12T02:01:51;28.85;;;12.98;;
71622;SDS011;59473;53.214;5.728;2022-11-12T02:04:16;27.63;;;13.70;;
71622;SDS011;59473;53.214;5.728;2022-11-12T02:06:41;34.90;;;14.50;;
71622;SDS011;59473;53.214;5.728;2022-11-12T02:09:07;30.10;;;13.60;;
71622;SDS011;59473;53.214;5.728;2022-11-12T02:11:33;30.55;;;12.90;;
71622;SDS011;59473;53.214;5.728;2022-11-12T02:13:58;30.37;;;14.63;;
71622;SDS011;59473;53.214;5.728;2022-11-12T02:16:28;33.25;;;14.95;;
71622;SDS011;59473;53.214;5.728;2022-11-12T02:18:54;33.25;;;15.00;;
71622;SDS011;59473;53.214;5.728;2022-11-12T02:21:20;34.70;;;16.20;;
71622;SDS011;59473;53.214;5.728;2022-11-12T02:23:46;33.05;;;15.70;;
71622;SDS011;59473;53.214;5.728;2022-11-12T02:26:11;38.17;;;16.60;;
71622;SDS011;59473;53.214;5.728;2022-11-12T02:28:36;40.27;;;15.83;;
71622;SDS011;59473;53.214;5.728;2022-11-12T02:31:01;29.30;;;14.77;;
71622;SDS011;59473;53.214;5.728;2022-11-12T02:33:27;31.40;;;15.77;;
71622;SDS011;59473;53.214;5.728;2022-11-12T02:35:52;30.27;;;15.47;;
71622;SDS011;59473;53.214;5.728;2022-11-12T02:38:17;34.93;;;16.10;;
71622;SDS011;59473;53.214;5.728;2022-11-12T02:40:42;27.73;;;13.73;;
71622;SDS011;59473;53.214;5.728;2022-11-12T02:43:07;35.23;;;16.03;;
71622;SDS011;59473;53.214;5.728;2022-11-12T02:45:33;34.47;;;14.63;;
71622;SDS011;59473;53.214;5.728;2022-11-12T02:47:58;29.67;;;13.90;;
71622;SDS011;59473;53.214;5.728;2022-11-12T02:50:23;30.03;;;15.17;;
71622;SDS011;59473;53.214;5.728;2022-11-12T02:52:48;31.50;;;14.67;;
71622;SDS011;59473;53.214;5.728;2022-11-12T02:55:14;34.63;;;14.93;;
71622;SDS011;59473;53.214;5.728;2022-11-12T02:57:39;31.63;;;14.53;;
71622;SDS011;59473;53.214;5.728;2022-11-12T03:00:06;28.77;;;13.25;;
71622;SDS011;59473;53.214;5.728;2022-11-12T03:02:32;28.17;;;13.00;;
71622;SDS011;59473;53.214;5.728;2022-11-12T03:04:57;26.17;;;12.57;;
71622;SDS011;59473;53.214;5.728;2022-11-12T03:07:22;25.77;;;12.80;;
71622;SDS011;59473;53.214;5.728;2022-11-12T03:09:47;26.13;;;12.73;;
71622;SDS011;59473;53.214;5.728;2022-11-12T03:12:13;26.53;;;13.40;;
71622;SDS011;59473;53.214;5.728;2022-11-12T03:14:38;29.42;;;13.43;;
71622;SDS011;59473;53.214;5.728;2022-11-12T03:17:03;28.97;;;14.43;;
71622;SDS011;59473;53.214;5.728;2022-11-12T03:19:29;34.97;;;14.95;;
71622;SDS011;59473;53.214;5.728;2022-11-12T03:21:54;28.73;;;13.83;;
71622;SDS011;59473;53.214;5.728;2022-11-12T03:24:19;27.77;;;13.43;;
71622;SDS011;59473;53.214;5.728;2022-11-12T03:26:44;31.67;;;14.50;;
71622;SDS011;59473;53.214;5.728;2022-11-12T03:29:09;33.17;;;14.50;;
71622;SDS011;59473;53.214;5.728;2022-11-12T03:31:35;27.23;;;13.17;;
71622;SDS011;59473;53.214;5.728;2022-11-12T03:34:00;31.07;;;13.63;;
71622;SDS011;59473;53.214;5.728;2022-11-12T03:36:25;32.53;;;13.97;;
71622;SDS011;59473;53.214;5.728;2022-11-12T03:38:50;37.13;;;14.43;;
71622;SDS011;59473;53.214;5.728;2022-11-12T03:41:16;43.03;;;14.57;;
71622;SDS011;59473;53.214;5.728;2022-11-12T03:43:41;43.70;;;15.10;;
71622;SDS011;59473;53.214;5.728;2022-11-12T03:46:06;54.00;;;14.47;;
71622;SDS011;59473;53.214;5.728;2022-11-12T03:48:31;41.97;;;15.43;;
71622;SDS011;59473;53.214;5.728;2022-11-12T03:50:57;55.87;;;15.10;;
71622;SDS011;59473;53.214;5.728;2022-11-12T03:53:22;52.13;;;14.93;;
71622;SDS011;59473;53.214;5.728;2022-11-12T03:55:47;42.80;;;14.77;;
71622;SDS011;59473;53.214;5.728;2022-11-12T03:58:12;71.20;;;16.67;;
71622;SDS011;59473;53.214;5.728;2022-11-12T04:00:38;63.83;;;16.65;;
71622;SDS011;59473;53.214;5.728;2022-11-12T04:03:03;55.43;;;15.43;;
71622;SDS011;59473;53.214;5.728;2022-11-12T04:05:29;51.63;;;15.90;;
71622;SDS011;59473;53.214;5.728;2022-11-12T04:08:13;62.33;;;16.23;;
71622;SDS011;59473;53.214;5.728;2022-11-12T04:10:57;60.13;;;15.77;;
71622;SDS011;59473;53.214;5.728;2022-11-12T04:13:23;86.75;;;16.92;;
71622;SDS011;59473;53.214;5.728;2022-11-12T04:15:55;55.50;;;15.03;;
71622;SDS011;59473;53.214;5.728;2022-11-12T04:18:39;77.35;;;15.98;;
71622;SDS011;59473;53.214;5.728;2022-11-12T04:21:33;87.22;;;18.13;;
71622;SDS011;59473;53.214;5.728;2022-11-12T04:24:16;109.95;;;20.73;;
71622;SDS011;59473;53.214;5.728;2022-11-12T04:27:00;146.15;;;21.30;;
71622;SDS011;59473;53.214;5.728;2022-11-12T04:29:26;73.10;;;16.93;;
71622;SDS011;59473;53.214;5.728;2022-11-12T04:32:09;73.25;;;16.20;;
71622;SDS011;59473;53.214;5.728;2022-11-12T04:34:35;102.90;;;17.97;;
71622;SDS011;59473;53.214;5.728;2022-11-12T04:37:01;144.93;;;19.00;;
71622;SDS011;59473;53.214;5.728;2022-11-12T04:39:26;141.40;;;20.13;;
71622;SDS011;59473;53.214;5.728;2022-11-12T04:41:52;111.50;;;19.70;;
71622;SDS011;59473;53.214;5.728;2022-11-12T04:44:36;135.10;;;19.58;;
71622;SDS011;59473;53.214;5.728;2022-11-12T04:47:20;173.98;;;20.58;;
71622;SDS011;59473;53.214;5.728;2022-11-12T04:49:45;157.50;;;20.80;;
71622;SDS011;59473;53.214;5.728;2022-11-12T04:52:10;94.37;;;19.53;;
71622;SDS011;59473;53.214;5.728;2022-11-12T04:54:35;127.70;;;20.03;;
71622;SDS011;59473;53.214;5.728;2022-11-12T04:57:01;132.33;;;19.13;;
71622;SDS011;59473;53.214;5.728;2022-11-12T04:59:26;110.33;;;19.60;;
71622;SDS011;59473;53.214;5.728;2022-11-12T05:01:51;160.63;;;20.60;;
71622;SDS011;59473;53.214;5.728;2022-11-12T05:04:16;180.60;;;21.43;;
71622;SDS011;59473;53.214;5.728;2022-11-12T05:06:42;100.03;;;18.57;;
71622;SDS011;59473;53.214;5.728;2022-11-12T05:09:16;170.07;;;20.83;;
71622;SDS011;59473;53.214;5.728;2022-11-12T05:11:42;258.83;;;22.75;;
71622;SDS011;59473;53.214;5.728;2022-11-12T05:14:07;324.77;;;25.60;;
71622;SDS011;59473;53.214;5.728;2022-11-12T05:16:32;337.87;;;25.87;;
71622;SDS011;59473;53.214;5.728;2022-11-12T05:18:57;255.20;;;21.90;;
71622;SDS011;59473;53.214;5.728;2022-11-12T05:21:23;267.63;;;23.60;;
71622;SDS011;59473;53.214;5.728;2022-11-12T05:24:06;434.47;;;29.47;;
71622;SDS011;59473;53.214;5.728;2022-11-12T05:26:32;377.10;;;27.73;;
71622;SDS011;59473;53.214;5.728;2022-11-12T05:28:57;331.70;;;26.52;;
71622;SDS011;59473;53.214;5.728;2022-11-12T05:31:22;324.52;;;27.00;;
71622;SDS011;59473;53.214;5.728;2022-11-12T05:33:47;342.97;;;26.83;;
71622;SDS011;59473;53.214;5.728;2022-11-12T05:36:13;189.63;;;23.33;;
71622;SDS011;59473;53.214;5.728;2022-11-12T05:38:38;341.17;;;27.73;;
71622;SDS011;59473;53.214;5.728;2022-11-12T05:41:03;472.87;;;34.03;;
71622;SDS011;59473;53.214;5.728;2022-11-12T05:43:28;452.93;;;31.80;;
71622;SDS011;59473;53.214;5.728;2022-11-12T05:45:54;467.57;;;35.03;;
71622;SDS011;59473;53.214;5.728;2022-11-12T05:48:19;295.20;;;27.27;;
71622;SDS011;59473;53.214;5.728;2022-11-12T05:50:48;378.37;;;30.30;;
71622;SDS011;59473;53.214;5.728;2022-11-12T05:53:13;230.98;;;25.52;;
71622;SDS011;59473;53.214;5.728;2022-11-12T05:55:38;229.80;;;26.87;;
71622;SDS011;59473;53.214;5.728;2022-11-12T05:58:04;182.63;;;26.30;;
71622;SDS011;59473;53.214;5.728;2022-11-12T06:00:30;110.47;;;23.92;;
71622;SDS011;59473;53.214;5.728;2022-11-12T06:02:58;115.97;;;24.30;;
71622;SDS011;59473;53.214;5.728;2022-11-12T06:05:24;119.27;;;24.23;;
71622;SDS011;59473;53.214;5.728;2022-11-12T06:07:49;160.07;;;27.25;;
71622;SDS011;59473;53.214;5.728;2022-11-12T06:10:14;191.30;;;30.02;;
71622;SDS011;59473;53.214;5.728;2022-11-12T06:12:39;153.27;;;29.57;;
71622;SDS011;59473;53.214;5.728;2022-11-12T06:15:05;162.40;;;27.63;;
71622;SDS011;59473;53.214;5.728;2022-11-12T06:17:30;117.47;;;26.20;;
71622;SDS011;59473;53.214;5.728;2022-11-12T06:19:55;137.60;;;28.80;;
71622;SDS011;59473;53.214;5.728;2022-11-12T06:22:20;132.53;;;27.23;;
71622;SDS011;59473;53.214;5.728;2022-11-12T06:24:46;127.20;;;28.17;;
71622;SDS011;59473;53.214;5.728;2022-11-12T06:27:11;122.20;;;28.10;;
71622;SDS011;59473;53.214;5.728;2022-11-12T06:29:36;109.40;;;26.63;;
71622;SDS011;59473;53.214;5.728;2022-11-12T06:32:02;106.15;;;26.50;;
71622;SDS011;59473;53.214;5.728;2022-11-12T06:34:28;105.77;;;27.93;;
71622;SDS011;59473;53.214;5.728;2022-11-12T06:36:53;107.60;;;27.40;;
71622;SDS011;59473;53.214;5.728;2022-11-12T06:39:18;104.93;;;26.33;;
71622;SDS011;59473;53.214;5.728;2022-11-12T06:41:44;95.00;;;24.30;;
71622;SDS011;59473;53.214;5.728;2022-11-12T06:44:10;100.43;;;24.40;;
71622;SDS011;59473;53.214;5.728;2022-11-12T06:46:35;135.20;;;26.17;;
71622;SDS011;59473;53.214;5.728;2022-11-12T06:49:00;135.30;;;25.13;;
71622;SDS011;59473;53.214;5.728;2022-11-12T06:51:25;109.23;;;25.47;;
71622;SDS011;59473;53.214;5.728;2022-11-12T06:53:51;138.50;;;27.20;;
71622;SDS011;59473;53.214;5.728;2022-11-12T06:56:16;111.63;;;25.17;;
71622;SDS011;59473;53.214;5.728;2022-11-12T06:58:41;195.87;;;27.80;;
71622;SDS011;59473;53.214;5.728;2022-11-12T07:01:11;146.63;;;25.53;;
71622;SDS011;59473;53.214;5.728;2022-11-12T07:03:39;114.93;;;24.30;;
71622;SDS011;59473;53.214;5.728;2022-11-12T07:06:10;89.88;;;24.27;;
71622;SDS011;59473;53.214;5.728;2022-11-12T07:08:36;155.10;;;25.42;;
71622;SDS011;59473;53.214;5.728;2022-11-12T07:11:02;180.00;;;26.83;;
71622;SDS011;59473;53.214;5.728;2022-11-12T07:13:28;181.20;;;27.37;;
71622;SDS011;59473;53.214;5.728;2022-11-12T07:15:55;150.80;;;26.52;;
71622;SDS011;59473;53.214;5.728;2022-11-12T07:18:20;212.57;;;29.23;;
71622;SDS011;59473;53.214;5.728;2022-11-12T07:20:45;117.20;;;27.17;;
71622;SDS011;59473;53.214;5.728;2022-11-12T07:23:11;227.80;;;29.97;;
71622;SDS011;59473;53.214;5.728;2022-11-12T07:25:36;185.97;;;28.53;;
71622;SDS011;59473;53.214;5.728;2022-11-12T07:28:01;153.77;;;27.73;;
71622;SDS011;59473;53.214;5.728;2022-11-12T07:30:26;126.70;;;27.83;;
71622;SDS011;59473;53.214;5.728;2022-11-12T07:32:52;196.37;;;31.27;;
71622;SDS011;59473;53.214;5.728;2022-11-12T07:35:17;145.37;;;28.30;;
71622;SDS011;59473;53.214;5.728;2022-11-12T07:37:42;172.77;;;28.63;;
71622;SDS011;59473;53.214;5.728;2022-11-12T07:40:07;108.87;;;27.60;;
71622;SDS011;59473;53.214;5.728;2022-11-12T07:42:33;145.90;;;30.73;;
71622;SDS011;59473;53.214;5.728;2022-11-12T07:44:59;131.32;;;30.23;;
71622;SDS011;59473;53.214;5.728;2022-11-12T07:47:24;214.43;;;32.57;;
71622;SDS011;59473;53.214;5.728;2022-11-12T07:55:55;136.77;;;28.50;;
71622;SDS011;59473;53.214;5.728;2022-11-12T07:58:22;185.07;;;29.25;;
71622;SDS011;59473;53.214;5.728;2022-11-12T08:00:47;182.43;;;29.15;;
71622;SDS011;59473;53.214;5.728;2022-11-12T08:03:12;229.10;;;30.00;;
71622;SDS011;59473;53.214;5.728;2022-11-12T08:05:37;162.23;;;27.10;;
71622;SDS011;59473;53.214;5.728;2022-11-12T08:08:03;252.53;;;31.70;;
71622;SDS011;59473;53.214;5.728;2022-11-12T08:10:28;254.30;;;29.47;;
71622;SDS011;59473;53.214;5.728;2022-11-12T08:12:54;202.40;;;27.47;;
71622;SDS011;59473;53.214;5.728;2022-11-12T08:15:19;186.45;;;26.88;;
71622;SDS011;59473;53.214;5.728;2022-11-12T08:17:45;175.63;;;25.60;;
71622;SDS011;59473;53.214;5.728;2022-11-12T08:20:10;94.87;;;22.47;;
71622;SDS011;59473;53.214;5.728;2022-11-12T08:22:36;190.90;;;26.35;;
71622;SDS011;59473;53.214;5.728;2022-11-12T08:25:02;215.47;;;32.47;;
71622;SDS011;59473;53.214;5.728;2022-11-12T08:27:27;233.70;;;31.43;;
71622;SDS011;59473;53.214;5.728;2022-11-12T08:29:52;259.93;;;26.63;;
71622;SDS011;59473;53.214;5.728;2022-11-12T08:32:17;165.50;;;24.43;;
71622;SDS011;59473;53.214;5.728;2022-11-12T08:34:43;177.23;;;26.33;;
71622;SDS011;59473;53.214;5.728;2022-11-12T08:37:08;226.20;;;24.97;;
71622;SDS011;59473;53.214;5.728;2022-11-12T08:39:33;225.53;;;28.47;;
71622;SDS011;59473;53.214;5.728;2022-11-12T08:41:58;243.27;;;29.83;;
71622;SDS011;59473;53.214;5.728;2022-11-12T08:44:23;179.43;;;24.07;;
71622;SDS011;59473;53.214;5.728;2022-11-12T08:46:49;248.23;;;27.53;;
71622;SDS011;59473;53.214;5.728;2022-11-12T08:49:14;172.33;;;25.17;;
71622;SDS011;59473;53.214;5.728;2022-11-12T08:51:39;168.20;;;25.50;;
71622;SDS011;59473;53.214;5.728;2022-11-12T08:54:05;209.93;;;27.63;;
71622;SDS011;59473;53.214;5.728;2022-11-12T08:56:30;125.97;;;24.43;;
71622;SDS011;59473;53.214;5.728;2022-11-12T08:58:55;133.20;;;24.07;;
71622;SDS011;59473;53.214;5.728;2022-11-12T09:01:20;151.63;;;22.33;;
71622;SDS011;59473;53.214;5.728;2022-11-12T09:03:45;122.13;;;21.70;;
71622;SDS011;59473;53.214;5.728;2022-11-12T09:06:13;123.68;;;22.73;;
71622;SDS011;59473;53.214;5.728;2022-11-12T09:08:38;88.03;;;20.60;;
71622;SDS011;59473;53.214;5.728;2022-11-12T09:11:03;69.43;;;19.17;;
71622;SDS011;59473;53.214;5.728;2022-11-12T09:13:29;67.47;;;18.53;;
71622;SDS011;59473;53.214;5.728;2022-11-12T09:15:58;71.40;;;21.53;;
71622;SDS011;59473;53.214;5.728;2022-11-12T09:18:23;107.50;;;23.08;;
71622;SDS011;59473;53.214;5.728;2022-11-12T09:20:48;86.97;;;21.03;;
71622;SDS011;59473;53.214;5.728;2022-11-12T09:23:14;88.53;;;20.30;;
71622;SDS011;59473;53.214;5.728;2022-11-12T09:25:40;132.90;;;21.83;;
71622;SDS011;59473;53.214;5.728;2022-11-12T09:28:09;124.07;;;20.10;;
71622;SDS011;59473;53.214;5.728;2022-11-12T09:30:35;97.63;;;19.48;;
71622;SDS011;59473;53.214;5.728;2022-11-12T09:33:00;106.13;;;20.77;;
71622;SDS011;59473;53.214;5.728;2022-11-12T09:35:25;92.13;;;19.60;;
71622;SDS011;59473;53.214;5.728;2022-11-12T09:37:51;97.17;;;20.27;;
71622;SDS011;59473;53.214;5.728;2022-11-12T09:40:17;91.25;;;20.73;;
71622;SDS011;59473;53.214;5.728;2022-11-12T09:42:44;97.63;;;24.42;;
71622;SDS011;59473;53.214;5.728;2022-11-12T09:45:12;92.33;;;20.73;;
71622;SDS011;59473;53.214;5.728;2022-11-12T09:47:42;119.22;;;21.38;;
71622;SDS011;59473;53.214;5.728;2022-11-12T09:53:24;94.95;;;19.33;;
71622;SDS011;59473;53.214;5.728;2022-11-12T09:55:51;79.82;;;20.73;;
71622;SDS011;59473;53.214;5.728;2022-11-12T09:58:17;94.23;;;24.93;;
71622;SDS011;59473;53.214;5.728;2022-11-12T10:00:57;86.75;;;24.42;;
71622;SDS011;59473;53.214;5.728;2022-11-12T10:03:33;100.18;;;24.95;;
71622;SDS011;59473;53.214;5.728;2022-11-12T10:06:37;58.13;;;18.97;;
71622;SDS011;59473;53.214;5.728;2022-11-12T10:09:10;57.05;;;18.70;;
71622;SDS011;59473;53.214;5.728;2022-11-12T10:11:50;127.25;;;32.15;;
71622;SDS011;59473;53.214;5.728;2022-11-12T10:14:41;58.03;;;17.45;;
71622;SDS011;59473;53.214;5.728;2022-11-12T10:20:05;72.10;;;19.33;;
71622;SDS011;59473;53.214;5.728;2022-11-12T10:22:44;122.50;;;33.83;;
71622;SDS011;59473;53.214;5.728;2022-11-12T10:25:15;76.63;;;23.73;;
71622;SDS011;59473;53.214;5.728;2022-11-12T10:27:40;113.95;;;21.52;;
71622;SDS011;59473;53.214;5.728;2022-11-12T10:30:12;99.97;;;20.93;;
71622;SDS011;59473;53.214;5.728;2022-11-12T10:32:40;101.32;;;33.05;;
71622;SDS011;59473;53.214;5.728;2022-11-12T10:35:06;58.00;;;22.67;;
71622;SDS011;59473;53.214;5.728;2022-11-12T10:39:58;80.07;;;18.15;;
71622;SDS011;59473;53.214;5.728;2022-11-12T10:42:23;51.93;;;17.13;;
71622;SDS011;59473;53.214;5.728;2022-11-12T10:44:48;45.90;;;16.10;;
71622;SDS011;59473;53.214;5.728;2022-11-12T10:47:19;62.70;;;17.17;;
71622;SDS011;59473;53.214;5.728;2022-11-12T10:49:58;86.28;;;18.50;;
71622;SDS011;59473;53.214;5.728;2022-11-12T10:52:25;51.05;;;17.02;;
71622;SDS011;59473;53.214;5.728;2022-11-12T10:55:02;79.67;;;18.13;;
71622;SDS011;59473;53.214;5.728;2022-11-12T10:57:27;41.28;;;15.57;;
71622;SDS011;59473;53.214;5.728;2022-11-12T11:02:36;62.58;;;16.73;;
71622;SDS011;59473;53.214;5.728;2022-11-12T11:07:48;59.13;;;15.35;;
71622;SDS011;59473;53.214;5.728;2022-11-12T11:10:30;60.23;;;17.60;;
71622;SDS011;59473;53.214;5.728;2022-11-12T11:13:08;48.53;;;17.80;;
71622;SDS011;59473;53.214;5.728;2022-11-12T11:15:34;80.63;;;18.23;;
71622;SDS011;59473;53.214;5.728;2022-11-12T11:17:59;49.30;;;18.53;;
71622;SDS011;59473;53.214;5.728;2022-11-12T11:20:39;48.53;;;16.97;;
71622;SDS011;59473;53.214;5.728;2022-11-12T11:23:27;46.90;;;18.17;;
71622;SDS011;59473;53.214;5.728;2022-11-12T11:25:54;69.90;;;18.63;;
71622;SDS011;59473;53.214;5.728;2022-11-12T11:51:09;47.63;;;19.57;;
71622;SDS011;59473;53.214;5.728;2022-11-12T11:56:30;54.33;;;21.40;;
71622;SDS011;59473;53.214;5.728;2022-11-12T12:06:30;64.63;;;22.90;;
71622;SDS011;59473;53.214;5.728;2022-11-12T12:11:34;100.27;;;34.50;;
71622;SDS011;59473;53.214;5.728;2022-11-12T12:21:22;66.55;;;25.55;;
71622;SDS011;59473;53.214;5.728;2022-11-12T12:26:35;64.72;;;25.85;;
71622;SDS011;59473;53.214;5.728;2022-11-12T12:31:36;53.30;;;23.73;;
71622;SDS011;59473;53.214;5.728;2022-11-12T12:34:05;54.90;;;25.08;;
71622;SDS011;59473;53.214;5.728;2022-11-12T12:36:38;64.68;;;23.90;;
71622;SDS011;59473;53.214;5.728;2022-11-12T12:39:14;65.00;;;25.00;;
71622;SDS011;59473;53.214;5.728;2022-11-12T12:44:09;68.18;;;29.08;;
71622;SDS011;59473;53.214;5.728;2022-11-12T12:46:39;82.15;;;36.38;;
71622;SDS011;59473;53.214;5.728;2022-11-12T12:49:06;80.70;;;37.33;;
71622;SDS011;59473;53.214;5.728;2022-11-12T12:51:35;79.80;;;37.53;;
71622;SDS011;59473;53.214;5.728;2022-11-12T12:54:00;64.40;;;26.87;;
71622;SDS011;59473;53.214;5.728;2022-11-12T12:58:57;63.33;;;27.25;;
71622;SDS011;59473;53.214;5.728;2022-11-12T13:01:28;61.92;;;26.75;;
71622;SDS011;59473;53.214;5.728;2022-11-12T13:19:32;62.03;;;27.60;;
71622;SDS011;59473;53.214;5.728;2022-11-12T13:42:53;84.03;;;36.08;;
71622;SDS011;59473;53.214;5.728;2022-11-12T13:45:21;82.03;;;35.25;;
71622;SDS011;59473;53.214;5.728;2022-11-12T13:47:47;155.97;;;59.37;;
71622;SDS011;59473;53.214;5.728;2022-11-12T13:50:14;117.95;;;46.05;;
71622;SDS011;59473;53.214;5.728;2022-11-12T13:52:40;119.40;;;47.53;;
71622;SDS011;59473;53.214;5.728;2022-11-12T13:55:11;130.47;;;52.93;;
71622;SDS011;59473;53.214;5.728;2022-11-12T13:57:36;90.55;;;37.83;;
71622;SDS011;59473;53.214;5.728;2022-11-12T14:05:17;91.40;;;36.23;;
71622;SDS011;59473;53.214;5.728;2022-11-12T14:13:18;73.32;;;31.88;;
71622;SDS011;59473;53.214;5.728;2022-11-12T14:21:05;77.95;;;32.60;;
71622;SDS011;59473;53.214;5.728;2022-11-12T14:23:30;77.75;;;31.25;;
71622;SDS011;59473;53.214;5.728;2022-11-12T14:25:56;78.23;;;31.90;;
71622;SDS011;59473;53.214;5.728;2022-11-12T14:28:31;75.43;;;32.60;;
71622;SDS011;59473;53.214;5.728;2022-11-12T14:30:57;77.55;;;31.15;;
71622;SDS011;59473;53.214;5.728;2022-11-12T14:33:23;79.32;;;32.55;;
71622;SDS011;59473;53.214;5.728;2022-11-12T14:35:50;70.90;;;31.63;;
71622;SDS011;59473;53.214;5.728;2022-11-12T14:38:24;70.78;;;29.83;;
71622;SDS011;59473;53.214;5.728;2022-11-12T14:40:52;70.20;;;29.85;;
71622;SDS011;59473;53.214;5.728;2022-11-12T14:45:47;68.23;;;28.83;;
71622;SDS011;59473;53.214;5.728;2022-11-12T14:48:12;70.30;;;30.55;;
71622;SDS011;59473;53.214;5.728;2022-11-12T14:50:38;65.60;;;30.10;;
71622;SDS011;59473;53.214;5.728;2022-11-12T14:53:08;63.10;;;27.70;;
71622;SDS011;59473;53.214;5.728;2022-11-12T14:55:36;57.10;;;26.13;;
71622;SDS011;59473;53.214;5.728;2022-11-12T14:58:02;55.53;;;26.23;;
71622;SDS011;59473;53.214;5.728;2022-11-12T15:02:53;66.83;;;32.23;;
71622;SDS011;59473;53.214;5.728;2022-11-12T15:05:19;74.70;;;36.33;;
71622;SDS011;59473;53.214;5.728;2022-11-12T15:13:06;71.93;;;35.08;;
71622;SDS011;59473;53.214;5.728;2022-11-12T15:15:32;71.70;;;34.50;;
71622;SDS011;59473;53.214;5.728;2022-11-12T15:17:58;61.10;;;27.80;;
71622;SDS011;59473;53.214;5.728;2022-11-12T15:20:24;62.90;;;30.37;;
71622;SDS011;59473;53.214;5.728;2022-11-12T15:22:50;85.93;;;40.30;;
71622;SDS011;59473;53.214;5.728;2022-11-12T15:25:29;63.42;;;30.67;;
71622;SDS011;59473;53.214;5.728;2022-11-12T15:27:55;63.20;;;32.22;;
71622;SDS011;59473;53.214;5.728;2022-11-12T15:32:47;73.13;;;36.40;;
71622;SDS011;59473;53.214;5.728;2022-11-12T15:37:50;87.68;;;40.13;;
71622;SDS011;59473;53.214;5.728;2022-11-12T15:40:16;71.50;;;35.80;;
71622;SDS011;59473;53.214;5.728;2022-11-12T15:42:42;97.30;;;42.15;;
71622;SDS011;59473;53.214;5.728;2022-11-12T15:45:12;86.83;;;40.50;;
71622;SDS011;59473;53.214;5.728;2022-11-12T15:47:38;59.70;;;29.10;;
71622;SDS011;59473;53.214;5.728;2022-11-12T15:50:19;52.53;;;27.50;;
71622;SDS011;59473;53.214;5.728;2022-11-12T15:52:46;68.80;;;30.98;;
71622;SDS011;59473;53.214;5.728;2022-11-12T15:55:12;58.67;;;29.90;;
71622;SDS011;59473;53.214;5.728;2022-11-12T15:57:41;58.93;;;27.13;;
71622;SDS011;59473;53.214;5.728;2022-11-12T16:00:17;50.60;;;24.40;;
71622;SDS011;59473;53.214;5.728;2022-11-12T16:02:43;47.47;;;24.38;;
71622;SDS011;59473;53.214;5.728;2022-11-12T16:05:12;43.17;;;22.73;;
71622;SDS011;59473;53.214;5.728;2022-11-12T16:07:38;49.37;;;24.03;;
71622;SDS011;59473;53.214;5.728;2022-11-12T16:10:03;44.13;;;23.00;;
71622;SDS011;59473;53.214;5.728;2022-11-12T16:12:28;45.00;;;21.98;;
71622;SDS011;59473;53.214;5.728;2022-11-12T16:14:54;39.25;;;21.50;;
71622;SDS011;59473;53.214;5.728;2022-11-12T16:17:19;40.15;;;20.60;;
71622;SDS011;59473;53.214;5.728;2022-11-12T16:19:45;45.30;;;20.07;;
71622;SDS011;59473;53.214;5.728;2022-11-12T16:22:10;40.53;;;20.87;;
71622;SDS011;59473;53.214;5.728;2022-11-12T16:24:39;43.88;;;20.33;;
71622;SDS011;59473;53.214;5.728;2022-11-12T16:27:04;41.47;;;20.60;;
71622;SDS011;59473;53.214;5.728;2022-11-12T16:29:32;42.13;;;20.97;;
71622;SDS011;59473;53.214;5.728;2022-11-12T16:31:57;37.40;;;20.10;;
71622;SDS011;59473;53.214;5.728;2022-11-12T16:34:22;45.40;;;22.17;;
71622;SDS011;59473;53.214;5.728;2022-11-12T16:36:47;41.90;;;21.03;;
71622;SDS011;59473;53.214;5.728;2022-11-12T16:39:13;48.92;;;21.67;;